createdAt,value
2019-01-20T00:01:12.013Z,-7.30
2019-01-20T00:03:42.034Z,-7.30
2019-01-20T00:06:12.018Z,-7.40
2019-01-20T00:08:42.093Z,-7.50
2019-01-20T00:11:16.635Z,-7.40
2019-01-20T00:13:43.779Z,-7.60
2019-01-20T00:16:13.879Z,-7.30
2019-01-20T00:18:43.861Z,-7.80
2019-01-20T00:21:13.971Z,-7.80
2019-01-20T00:23:44.071Z,-7.30
2019-01-20T00:26:14.078Z,-7.30
2019-01-20T00:28:44.152Z,-7.40
2019-01-20T00:31:14.155Z,-7.20
2019-01-20T00:33:44.175Z,-7.40
2019-01-20T00:36:14.262Z,-7.30
2019-01-20T00:38:44.317Z,-7.40
2019-01-20T00:41:14.401Z,-7.30
2019-01-20T00:43:44.480Z,-7.40
2019-01-20T00:46:14.534Z,-7.30
2019-01-20T00:48:44.624Z,-7.40
2019-01-20T00:51:14.807Z,-7.30
2019-01-20T00:53:44.849Z,-7.80
2019-01-20T00:56:14.856Z,-7.40
2019-01-20T00:58:44.836Z,-7.80
2019-01-20T01:01:14.930Z,-7.80
2019-01-20T01:03:45.036Z,-7.40
2019-01-20T01:06:15.101Z,-7.30
2019-01-20T01:08:45.102Z,-7.80
2019-01-20T01:11:15.172Z,-7.40
2019-01-20T01:13:45.242Z,-7.90
2019-01-20T01:16:16.314Z,-7.80
2019-01-20T01:18:46.310Z,-7.40
2019-01-20T01:21:16.298Z,-7.80
2019-01-20T01:23:46.382Z,-7.40
2019-01-20T01:26:16.452Z,-7.40
2019-01-20T01:28:46.452Z,-7.80
2019-01-20T01:31:16.464Z,-7.40
2019-01-20T01:33:46.544Z,-7.90
2019-01-20T01:36:16.526Z,-7.40
2019-01-20T01:38:46.583Z,-8.00
2019-01-20T01:41:16.649Z,-7.50
2019-01-20T01:43:46.728Z,-8.00
2019-01-20T01:46:16.798Z,-8.00
2019-01-20T01:48:46.804Z,-8.00
2019-01-20T01:51:16.805Z,-8.00
2019-01-20T01:53:46.900Z,-7.60
2019-01-20T01:56:16.952Z,-8.00
2019-01-20T01:58:47.012Z,-8.00
2019-01-20T02:01:17.086Z,-7.90
2019-01-20T02:03:47.135Z,-7.90
2019-01-20T02:06:17.230Z,-8.10
2019-01-20T02:08:47.355Z,-7.70
2019-01-20T02:11:17.355Z,-8.20
2019-01-20T02:13:47.404Z,-7.90
2019-01-20T02:16:17.483Z,-8.10
2019-01-20T02:18:47.557Z,-8.20
2019-01-20T02:21:17.539Z,-8.20
2019-01-20T02:23:47.546Z,-7.70
2019-01-20T02:26:17.637Z,-7.60
2019-01-20T02:28:47.643Z,-8.20
2019-01-20T02:31:17.711Z,-8.20
2019-01-20T02:33:47.778Z,-8.20
2019-01-20T02:36:17.933Z,-8.30
2019-01-20T02:38:48.085Z,-8.20
2019-01-20T02:41:18.180Z,-8.30
2019-01-20T02:43:48.244Z,-8.10
2019-01-20T02:46:18.239Z,-8.30
2019-01-20T02:48:48.295Z,-7.80
2019-01-20T02:51:18.289Z,-8.20
2019-01-20T02:53:48.351Z,-8.10
2019-01-20T02:56:18.366Z,-8.10
2019-01-20T02:58:48.345Z,-8.20
2019-01-20T03:01:18.399Z,-8.20
2019-01-20T03:03:48.396Z,-8.30
2019-01-20T03:06:18.413Z,-8.20
2019-01-20T03:08:48.525Z,-8.20
2019-01-20T03:11:18.517Z,-7.80
2019-01-20T03:13:48.600Z,-8.20
2019-01-20T03:16:18.656Z,-7.80
2019-01-20T03:18:48.752Z,-8.00
2019-01-20T03:21:18.820Z,-7.90
2019-01-20T03:23:48.791Z,-8.00
2019-01-20T03:26:18.772Z,-7.40
2019-01-20T03:28:48.761Z,-8.00
2019-01-20T03:31:18.844Z,-7.50
2019-01-20T03:33:48.917Z,-8.10
2019-01-20T03:36:18.916Z,-7.50
2019-01-20T03:38:48.976Z,-8.00
2019-01-20T03:41:18.970Z,-7.60
2019-01-20T03:43:48.979Z,-8.30
2019-01-20T03:46:19.115Z,-8.30
2019-01-20T03:48:49.086Z,-8.20
2019-01-20T03:51:19.065Z,-8.40
2019-01-20T03:53:49.135Z,-8.50
2019-01-20T03:56:19.129Z,-8.00
2019-01-20T03:58:49.206Z,-8.40
2019-01-20T04:01:19.195Z,-8.10
2019-01-20T04:03:49.278Z,-8.40
2019-01-20T04:06:19.315Z,-8.30
2019-01-20T04:08:49.402Z,-8.40
2019-01-20T04:11:19.537Z,-8.30
2019-01-20T04:13:49.615Z,-8.30
2019-01-20T04:16:19.626Z,-8.40
2019-01-20T04:18:49.628Z,-8.10
2019-01-20T04:21:19.633Z,-8.40
2019-01-20T04:23:50.173Z,-8.40
2019-01-20T04:26:20.323Z,-8.20
2019-01-20T04:28:50.317Z,-8.50
2019-01-20T04:31:20.448Z,-8.20
2019-01-20T04:33:50.444Z,-8.60
2019-01-20T04:36:20.462Z,-8.20
2019-01-20T04:38:50.607Z,-8.30
2019-01-20T04:41:20.768Z,-8.30
2019-01-20T04:43:50.873Z,-8.20
2019-01-20T04:46:20.955Z,-8.30
2019-01-20T04:48:50.969Z,-8.20
2019-01-20T04:51:20.962Z,-8.30
2019-01-20T04:53:51.053Z,-8.20
2019-01-20T04:56:21.115Z,-8.30
2019-01-20T04:58:51.099Z,-8.20
2019-01-20T05:01:21.092Z,-8.10
2019-01-20T05:03:51.091Z,-8.10
2019-01-20T05:06:21.129Z,-8.10
2019-01-20T05:08:51.218Z,-7.90
2019-01-20T05:11:21.182Z,-8.30
2019-01-20T05:13:51.168Z,-7.90
2019-01-20T05:16:21.144Z,-8.40
2019-01-20T05:18:51.121Z,-8.50
2019-01-20T05:21:21.190Z,-8.00
2019-01-20T05:23:51.253Z,-8.60
2019-01-20T05:26:21.259Z,-8.00
2019-01-20T05:28:51.252Z,-8.70
2019-01-20T05:31:21.322Z,-8.20
2019-01-20T05:33:51.321Z,-8.80
2019-01-20T05:36:21.380Z,-8.90
2019-01-20T05:38:51.372Z,-8.70
2019-01-20T05:41:21.359Z,-8.90
2019-01-20T05:43:51.364Z,-9.00
2019-01-20T05:46:21.523Z,-9.10
2019-01-20T05:48:51.603Z,-8.60
2019-01-20T05:51:21.619Z,-9.00
2019-01-20T05:53:51.614Z,-8.20
2019-01-20T05:56:21.614Z,-8.90
2019-01-20T05:58:51.599Z,-9.00
2019-01-20T06:01:21.691Z,-8.70
2019-01-20T06:03:51.670Z,-9.00
2019-01-20T06:06:21.684Z,-8.80
2019-01-20T06:08:51.686Z,-8.90
2019-01-20T06:11:21.682Z,-8.00
2019-01-20T06:13:51.662Z,-8.80
2019-01-20T06:16:21.668Z,-9.00
2019-01-20T06:18:51.704Z,-8.20
2019-01-20T06:21:21.715Z,-8.80
2019-01-20T06:23:51.730Z,-8.30
2019-01-20T06:26:21.709Z,-8.70
2019-01-20T06:28:51.699Z,-8.30
2019-01-20T06:31:21.765Z,-8.80
2019-01-20T06:33:51.767Z,-8.80
2019-01-20T06:36:21.845Z,-8.20
2019-01-20T06:38:51.959Z,-8.80
2019-01-20T06:41:21.963Z,-8.30
2019-01-20T06:43:51.958Z,-8.70
2019-01-20T06:46:21.991Z,-8.50
2019-01-20T06:48:51.969Z,-8.70
2019-01-20T06:51:22.064Z,-8.70
2019-01-20T06:53:52.155Z,-8.50
2019-01-20T06:56:22.153Z,-8.90
2019-01-20T06:58:52.172Z,-8.50
2019-01-20T07:01:22.169Z,-8.80
2019-01-20T07:03:52.353Z,-8.20
2019-01-20T07:06:22.353Z,-8.50
2019-01-20T07:08:52.383Z,-8.20
2019-01-20T07:11:22.372Z,-8.40
2019-01-20T07:13:52.470Z,-8.20
2019-01-20T07:16:22.574Z,-8.20
2019-01-20T07:18:52.665Z,-7.70
2019-01-20T07:21:22.739Z,-8.10
2019-01-20T07:23:52.800Z,-7.90
2019-01-20T07:26:22.819Z,-7.50
2019-01-20T07:28:52.898Z,-7.70
2019-01-20T07:31:22.911Z,-7.20
2019-01-20T07:33:52.951Z,-6.70
2019-01-20T07:36:23.074Z,-5.70
2019-01-20T07:38:53.168Z,-4.70
2019-01-20T07:41:23.251Z,-4.10
2019-01-20T07:43:53.328Z,-2.70
2019-01-20T07:46:23.404Z,-1.40
2019-01-20T07:48:53.413Z,-0.70
2019-01-20T07:51:23.416Z,-0.30
2019-01-20T07:53:53.418Z,0.30
2019-01-20T07:56:23.454Z,1.00
2019-01-20T07:58:53.534Z,2.80
2019-01-20T08:01:23.592Z,4.50
2019-01-20T08:03:53.594Z,5.00
2019-01-20T08:06:23.668Z,5.10
2019-01-20T08:08:53.790Z,4.50
2019-01-20T08:11:23.794Z,4.10
2019-01-20T08:13:53.794Z,4.90
2019-01-20T08:16:23.812Z,5.90
2019-01-20T08:18:53.800Z,6.80
2019-01-20T08:21:23.887Z,8.10
2019-01-20T08:23:53.959Z,9.70
2019-01-20T08:26:24.102Z,11.10
2019-01-20T08:28:54.163Z,11.90
2019-01-20T08:31:24.204Z,12.60
2019-01-20T08:33:54.305Z,12.80
2019-01-20T08:36:24.396Z,13.50
2019-01-20T08:38:54.471Z,14.00
2019-01-20T08:41:24.469Z,14.30
2019-01-20T08:43:54.480Z,14.00
2019-01-20T08:46:41.499Z,14.50
2019-01-20T08:49:11.641Z,15.40
2019-01-20T08:51:42.803Z,15.80
2019-01-20T08:54:12.892Z,15.10
2019-01-20T08:56:42.911Z,14.80
2019-01-20T08:59:13.059Z,14.60
2019-01-20T09:01:43.163Z,14.80
2019-01-20T09:04:13.205Z,15.30
2019-01-20T09:06:43.337Z,15.00
2019-01-20T09:09:13.374Z,15.30
2019-01-20T09:11:43.425Z,15.60
2019-01-20T09:14:13.514Z,15.50
2019-01-20T09:16:43.596Z,16.10
2019-01-20T09:19:13.710Z,15.60
2019-01-20T09:21:43.829Z,15.00
2019-01-20T09:24:13.937Z,14.60
2019-01-20T09:26:43.933Z,14.70
2019-01-20T09:29:13.945Z,14.50
2019-01-20T09:31:43.943Z,15.00
2019-01-20T09:34:13.949Z,15.20
2019-01-20T09:36:44.052Z,15.40
2019-01-20T09:39:14.807Z,15.50
2019-01-20T09:41:44.901Z,15.80
2019-01-20T09:44:15.043Z,16.70
2019-01-20T09:46:45.145Z,17.80
2019-01-20T09:49:15.287Z,18.40
2019-01-20T09:51:45.489Z,19.20
2019-01-20T09:54:15.500Z,19.60
2019-01-20T09:56:45.518Z,19.50
2019-01-20T09:59:15.542Z,19.10
2019-01-20T10:01:45.687Z,19.00
2019-01-20T10:04:15.735Z,19.10
2019-01-20T10:06:46.010Z,19.30
2019-01-20T10:09:16.062Z,19.10
2019-01-20T10:11:46.168Z,19.00
2019-01-20T10:14:16.345Z,19.00
2019-01-20T10:16:46.500Z,18.80
2019-01-20T10:19:16.645Z,18.40
2019-01-20T10:21:46.810Z,18.10
2019-01-20T10:24:16.894Z,17.60
2019-01-20T10:26:46.926Z,17.50
2019-01-20T10:29:17.131Z,17.50
2019-01-20T10:31:47.486Z,17.80
2019-01-20T10:34:17.616Z,18.30
2019-01-20T10:36:47.713Z,18.10
2019-01-20T10:39:17.847Z,18.20
2019-01-20T10:41:47.976Z,18.30
2019-01-20T10:44:18.108Z,18.00
2019-01-20T10:46:48.139Z,18.20
2019-01-20T10:49:18.181Z,18.00
2019-01-20T10:51:48.306Z,17.60
2019-01-20T10:54:18.322Z,17.20
2019-01-20T10:56:48.389Z,17.60
2019-01-20T10:59:18.492Z,18.10
2019-01-20T11:01:48.760Z,17.90
2019-01-20T11:04:18.763Z,17.20
2019-01-20T11:06:48.856Z,17.10
2019-01-20T11:09:19.001Z,15.90
2019-01-20T11:11:49.126Z,15.40
2019-01-20T11:14:19.205Z,15.50
2019-01-20T11:16:49.343Z,15.90
2019-01-20T11:19:19.545Z,16.40
2019-01-20T11:21:49.761Z,16.30
2019-01-20T11:24:20.014Z,16.70
2019-01-20T11:26:50.110Z,16.10
2019-01-20T11:29:20.301Z,13.30
2019-01-20T11:31:50.447Z,10.20
2019-01-20T11:34:20.737Z,7.80
2019-01-20T11:36:50.861Z,6.10
2019-01-20T11:39:20.986Z,5.20
2019-01-20T11:41:51.079Z,4.60
2019-01-20T11:44:21.217Z,4.10
2019-01-20T11:46:51.444Z,3.60
2019-01-20T11:49:21.595Z,3.00
2019-01-20T11:51:51.827Z,2.50
2019-01-20T11:54:22.065Z,1.90
2019-01-20T11:56:52.589Z,2.00
2019-01-20T11:59:22.717Z,2.10
2019-01-20T12:01:52.836Z,2.10
2019-01-20T12:04:22.972Z,1.70
2019-01-20T12:06:53.182Z,1.60
2019-01-20T12:09:23.216Z,1.60
2019-01-20T12:11:53.404Z,1.50
2019-01-20T12:14:24.224Z,1.60
2019-01-20T12:16:54.488Z,1.30
2019-01-20T12:19:24.586Z,1.50
2019-01-20T12:21:55.935Z,1.80
2019-01-20T12:24:27.539Z,2.10
2019-01-20T12:26:57.722Z,2.40
2019-01-20T12:29:27.942Z,2.90
2019-01-20T12:31:58.164Z,3.40
2019-01-20T12:34:28.445Z,3.40
2019-01-20T12:36:58.674Z,3.30
2019-01-20T12:39:28.925Z,3.40
2019-01-20T12:42:00.298Z,3.40
2019-01-20T12:44:31.587Z,2.90
2019-01-20T12:47:01.966Z,2.60
2019-01-20T12:49:32.462Z,2.50
2019-01-20T12:52:02.680Z,2.30
2019-01-20T12:54:32.904Z,2.20
2019-01-20T12:57:03.111Z,2.10
2019-01-20T12:59:33.379Z,2.00
2019-01-20T13:02:03.585Z,1.80
2019-01-20T13:04:33.810Z,1.40
2019-01-20T13:07:04.496Z,1.10
2019-01-20T13:09:34.523Z,0.80
2019-01-20T13:12:04.703Z,0.90
2019-01-20T13:14:38.949Z,1.30
2019-01-20T13:17:07.597Z,1.60
2019-01-20T13:19:37.657Z,1.80
2019-01-20T13:22:08.393Z,2.00
2019-01-20T13:24:39.188Z,2.20
2019-01-20T13:27:09.371Z,2.00
2019-01-20T13:29:39.843Z,2.00
2019-01-20T13:32:10.070Z,2.20
2019-01-20T13:34:40.292Z,2.10
2019-01-20T13:37:10.477Z,2.10
2019-01-20T13:39:40.754Z,2.20
2019-01-20T13:42:10.911Z,2.20
2019-01-20T13:44:46.189Z,2.20
2019-01-20T13:47:13.116Z,2.20
2019-01-20T13:49:45.353Z,2.10
2019-01-20T13:52:15.528Z,2.00
2019-01-20T13:54:45.722Z,1.90
2019-01-20T13:57:15.963Z,1.70
2019-01-20T13:59:46.211Z,1.80
2019-01-20T14:02:16.433Z,1.80
2019-01-20T14:04:46.731Z,1.70
2019-01-20T14:07:16.988Z,1.80
2019-01-20T14:09:47.218Z,1.80
2019-01-20T14:12:17.335Z,1.90
2019-01-20T14:14:53.893Z,1.80
2019-01-20T14:17:19.639Z,1.60
2019-01-20T14:19:49.875Z,1.50
2019-01-20T14:22:20.018Z,1.50
2019-01-20T14:24:50.202Z,1.40
2019-01-20T14:27:21.640Z,1.40
2019-01-20T14:29:51.879Z,1.30
2019-01-20T14:32:22.093Z,1.30
2019-01-20T14:34:52.371Z,1.10
2019-01-20T14:37:22.630Z,1.00
2019-01-20T14:39:52.901Z,1.00
2019-01-20T14:42:23.151Z,0.90
2019-01-20T14:44:53.638Z,0.70
2019-01-20T14:47:23.887Z,0.60
2019-01-20T14:49:56.442Z,0.70
2019-01-20T14:52:29.556Z,0.70
2019-01-20T14:54:59.822Z,0.70
2019-01-20T14:57:30.446Z,0.70
2019-01-20T15:00:00.946Z,0.60
2019-01-20T15:02:31.547Z,0.50
2019-01-20T15:05:06.309Z,0.50
2019-01-20T15:07:36.902Z,0.40
2019-01-20T15:10:08.555Z,0.30
2019-01-20T15:12:40.929Z,0.30
2019-01-20T15:15:16.022Z,0.20
2019-01-20T15:17:46.534Z,0.30
2019-01-20T15:20:17.189Z,0.30
2019-01-20T15:22:48.967Z,0.30
2019-01-20T15:25:22.141Z,0.20
2019-01-20T15:27:52.468Z,0.10
2019-01-20T15:30:26.751Z,0.10
2019-01-20T15:32:57.746Z,0.10
2019-01-20T15:35:29.087Z,0.00
2019-01-20T15:37:59.354Z,-0.10
2019-01-20T15:40:30.060Z,0.00
2019-01-20T15:43:00.563Z,0.00
2019-01-20T15:45:30.892Z,-0.10
2019-01-20T15:48:01.201Z,-0.20
2019-01-20T15:50:33.845Z,-0.20
2019-01-20T15:53:05.346Z,-0.20
2019-01-20T15:55:35.722Z,-0.20
2019-01-20T15:58:06.632Z,-0.30
2019-01-20T16:00:37.163Z,-0.30
2019-01-20T16:03:07.663Z,-0.40
2019-01-20T16:05:38.873Z,-0.40
2019-01-20T16:08:09.741Z,-0.40
2019-01-20T16:10:40.394Z,-0.50
2019-01-20T16:13:11.183Z,-0.50
2019-01-20T16:15:41.518Z,-0.40
2019-01-20T16:18:14.407Z,-0.50
2019-01-20T16:20:44.098Z,-0.50
2019-01-20T16:23:14.375Z,-0.40
2019-01-20T16:25:44.716Z,-0.40
2019-01-20T16:28:15.117Z,-0.40
2019-01-20T16:30:46.904Z,-0.50
2019-01-20T16:33:18.988Z,-0.60
2019-01-20T16:35:51.837Z,-0.60
2019-01-20T16:38:22.455Z,-0.70
2019-01-20T16:40:52.939Z,-0.60
2019-01-20T16:43:23.449Z,-0.60
2019-01-20T16:45:53.767Z,-0.60
2019-01-20T16:48:24.295Z,-0.60
2019-01-20T16:50:54.701Z,-0.50
2019-01-20T16:53:25.199Z,-0.50
2019-01-20T16:55:55.483Z,-0.50
2019-01-20T16:58:25.949Z,-0.50
2019-01-20T17:00:56.463Z,-0.40
2019-01-20T17:03:26.881Z,-0.50
2019-01-20T17:05:57.502Z,-0.60
2019-01-20T17:08:27.938Z,-0.50
2019-01-20T17:10:58.580Z,-0.60
2019-01-20T17:13:29.553Z,-0.60
2019-01-20T17:16:01.261Z,-0.60
2019-01-20T17:18:32.096Z,-0.60
2019-01-20T17:21:03.062Z,-0.60
2019-01-20T17:23:34.572Z,-0.60
2019-01-20T17:26:07.772Z,-0.60
2019-01-20T17:28:40.190Z,-0.60
2019-01-20T17:31:10.888Z,-0.60
2019-01-20T17:33:41.695Z,-0.60
2019-01-20T17:36:12.167Z,-0.60
2019-01-20T17:38:43.014Z,-0.60
2019-01-20T17:41:13.729Z,-0.60
2019-01-20T17:43:45.620Z,-0.60
2019-01-20T17:46:18.043Z,-0.70
2019-01-20T17:48:52.012Z,-0.80
2019-01-20T17:51:22.523Z,-0.90
2019-01-20T17:53:52.962Z,-0.90
2019-01-20T17:56:24.105Z,-0.70
2019-01-20T17:58:57.331Z,-0.70
2019-01-20T18:01:28.458Z,-0.60
2019-01-20T18:03:59.355Z,-0.70
2019-01-20T18:06:30.317Z,-0.70
2019-01-20T18:09:01.459Z,-0.70
2019-01-20T18:11:32.310Z,-0.70
2019-01-20T18:14:02.733Z,-0.80
2019-01-20T18:16:35.315Z,-0.80
2019-01-20T18:19:06.290Z,-0.70
2019-01-20T18:21:37.821Z,-0.80
2019-01-20T18:24:09.331Z,-0.90
2019-01-20T18:26:42.299Z,-1.00
2019-01-20T18:29:14.653Z,-1.00
2019-01-20T18:31:50.392Z,-1.00
2019-01-20T18:34:21.118Z,-1.00
2019-01-20T18:36:52.370Z,-1.00
2019-01-20T18:39:23.058Z,-1.00
2019-01-20T18:41:55.702Z,-1.10
2019-01-20T18:44:26.842Z,-1.20
2019-01-20T18:46:59.912Z,-1.20
2019-01-20T18:49:31.991Z,-1.10
2019-01-20T18:52:04.291Z,-1.10
2019-01-20T18:54:36.062Z,-1.10
2019-01-20T18:57:09.287Z,-1.10
2019-01-20T18:59:40.832Z,-1.10
2019-01-20T19:02:13.427Z,-1.10
2019-01-20T19:04:45.267Z,-1.10
2019-01-20T19:07:17.170Z,-1.10
2019-01-20T19:09:49.127Z,-1.10
2019-01-20T19:12:21.001Z,-1.10
2019-01-20T19:14:56.275Z,-1.10
2019-01-20T19:17:28.674Z,-1.30
2019-01-20T19:20:00.382Z,-1.40
2019-01-20T19:22:33.406Z,-1.50
2019-01-20T19:25:05.245Z,-1.50
2019-01-20T19:27:36.819Z,-1.70
2019-01-20T19:30:12.793Z,-1.80
2019-01-20T19:32:46.007Z,-1.70
2019-01-20T19:35:18.232Z,-1.60
2019-01-20T19:37:50.164Z,-1.50
2019-01-20T19:40:25.568Z,-1.40
2019-01-20T19:42:56.829Z,-1.40
2019-01-20T19:45:30.406Z,-1.40
2019-01-20T19:48:01.367Z,-1.40
2019-01-20T19:50:32.512Z,-1.40
2019-01-20T19:53:03.290Z,-1.30
2019-01-20T19:55:36.039Z,-1.30
2019-01-20T19:58:18.985Z,-1.30
2019-01-20T20:00:50.579Z,-1.30
2019-01-20T20:03:21.664Z,-1.30
2019-01-20T20:05:52.532Z,-1.30
2019-01-20T20:08:24.531Z,-1.30
2019-01-20T20:10:55.827Z,-1.30
2019-01-20T20:13:30.130Z,-1.40
2019-01-20T20:16:01.270Z,-1.40
2019-01-20T20:18:32.269Z,-1.40
2019-01-20T20:21:03.234Z,-1.50
2019-01-20T20:23:36.536Z,-1.50
2019-01-20T20:26:07.750Z,-1.50
2019-01-20T20:28:45.577Z,-1.50
2019-01-20T20:31:19.233Z,-1.50
2019-01-20T20:33:50.375Z,-1.60
2019-01-20T20:36:26.112Z,-1.60
2019-01-20T20:38:59.343Z,-1.50
2019-01-20T20:41:33.485Z,-1.50
2019-01-20T20:44:04.269Z,-1.40
2019-01-20T20:46:35.327Z,-1.40
2019-01-20T20:49:07.618Z,-1.30
2019-01-20T20:51:38.044Z,-1.30
2019-01-20T20:54:08.658Z,-1.50
2019-01-20T20:56:42.113Z,-1.60
2019-01-20T20:59:12.830Z,-1.60
2019-01-20T21:01:44.467Z,-1.70
2019-01-20T21:04:14.886Z,-1.70
2019-01-20T21:06:47.066Z,-1.70
2019-01-20T21:09:18.342Z,-1.60
2019-01-20T21:11:48.946Z,-1.60
2019-01-20T21:14:19.627Z,-1.50
2019-01-20T21:16:54.050Z,-1.50
2019-01-20T21:19:25.737Z,-1.60
2019-01-20T21:21:56.183Z,-1.50
2019-01-20T21:24:28.218Z,-1.60
2019-01-20T21:26:58.550Z,-1.60
2019-01-20T21:29:28.852Z,-1.70
2019-01-20T21:31:59.089Z,-1.70
2019-01-20T21:34:29.398Z,-1.70
2019-01-20T21:36:59.655Z,-1.70
2019-01-20T21:39:29.951Z,-1.60
2019-01-20T21:42:00.152Z,-1.60
2019-01-20T21:44:30.366Z,-1.60
2019-01-20T21:47:00.653Z,-1.70
2019-01-20T21:49:30.886Z,-1.70
2019-01-20T21:52:03.003Z,-1.80
2019-01-20T21:54:33.292Z,-1.80
2019-01-20T21:57:03.568Z,-1.80
2019-01-20T21:59:33.792Z,-1.80
2019-01-20T22:02:04.022Z,-1.80
2019-01-20T22:04:34.176Z,-1.70
2019-01-20T22:07:04.479Z,-1.90
2019-01-20T22:09:34.624Z,-1.90
2019-01-20T22:12:04.898Z,-1.90
2019-01-20T22:14:35.131Z,-1.90
2019-01-20T22:17:05.438Z,-1.80
2019-01-20T22:19:35.552Z,-2.00
2019-01-20T22:22:05.566Z,-2.00
2019-01-20T22:24:35.734Z,-2.10
2019-01-20T22:27:05.864Z,-2.00
2019-01-20T22:29:35.984Z,-2.10
2019-01-20T22:32:06.446Z,-2.00
2019-01-20T22:34:36.475Z,-2.00
2019-01-20T22:37:06.665Z,-2.10
2019-01-20T22:39:36.756Z,-2.00
2019-01-20T22:42:06.866Z,-2.00
2019-01-20T22:44:37.016Z,-1.80
2019-01-20T22:47:07.125Z,-1.80
2019-01-20T22:49:37.220Z,-1.70
2019-01-20T22:52:07.247Z,-1.70
2019-01-20T22:54:37.346Z,-1.70
2019-01-20T22:57:08.667Z,-1.70
2019-01-20T22:59:38.684Z,-1.70
2019-01-20T23:02:08.793Z,-1.60
2019-01-20T23:04:38.959Z,-1.70
2019-01-20T23:07:09.151Z,-1.90
2019-01-20T23:09:39.327Z,-2.00
2019-01-20T23:12:09.469Z,-1.90
2019-01-20T23:14:39.671Z,-1.80
2019-01-20T23:17:10.861Z,-1.90
2019-01-20T23:19:40.941Z,-1.90
2019-01-20T23:22:11.025Z,-1.90
2019-01-20T23:24:41.097Z,-1.80
2019-01-20T23:27:11.206Z,-1.90
2019-01-20T23:29:41.301Z,-2.10
2019-01-20T23:32:11.324Z,-2.00
2019-01-20T23:34:41.419Z,-2.10
2019-01-20T23:37:11.413Z,-2.00
2019-01-20T23:39:41.432Z,-2.00
2019-01-20T23:42:11.524Z,-1.90
2019-01-20T23:44:41.702Z,-2.10
2019-01-20T23:47:15.313Z,-2.00
2019-01-20T23:49:43.533Z,-2.00
2019-01-20T23:52:13.604Z,-2.00
2019-01-20T23:54:43.712Z,-2.00
2019-01-20T23:57:13.813Z,-1.90
2019-01-20T23:59:43.877Z,-1.80
